sensor_id;sensor_type;location;lat;lon;timestamp;temperature;humidity
12481;DHT22;6305;48.398;11.762;2022-10-03T00:00:26;8.80;99.90
12481;DHT22;6305;48.398;11.762;2022-10-03T00:03:21;8.70;99.90
12481;DHT22;6305;48.398;11.762;2022-10-03T00:06:07;8.70;99.90
12481;DHT22;6305;48.398;11.762;2022-10-03T00:11:45;8.50;99.90
12481;DHT22;6305;48.398;11.762;2022-10-03T00:14:25;8.50;99.90
12481;DHT22;6305;48.398;11.762;2022-10-03T00:16:59;8.50;99.90
12481;DHT22;6305;48.398;11.762;2022-10-03T00:19:35;8.60;99.90
12481;DHT22;6305;48.398;11.762;2022-10-03T00:22:15;8.50;99.90
12481;DHT22;6305;48.398;11.762;2022-10-03T00:24:52;8.50;99.90
12481;DHT22;6305;48.398;11.762;2022-10-03T00:27:28;8.50;99.90
12481;DHT22;6305;48.398;11.762;2022-10-03T00:30:15;8.40;99.90
12481;DHT22;6305;48.398;11.762;2022-10-03T00:32:59;8.50;99.90
12481;DHT22;6305;48.398;11.762;2022-10-03T00:35:43;8.50;99.90
12481;DHT22;6305;48.398;11.762;2022-10-03T00:38:33;8.60;99.90
12481;DHT22;6305;48.398;11.762;2022-10-03T00:41:25;8.50;99.90
12481;DHT22;6305;48.398;11.762;2022-10-03T00:44:23;8.50;99.90
12481;DHT22;6305;48.398;11.762;2022-10-03T00:47:27;8.40;99.90
12481;DHT22;6305;48.398;11.762;2022-10-03T00:50:13;8.40;99.90
12481;DHT22;6305;48.398;11.762;2022-10-03T00:52:58;8.40;99.90
12481;DHT22;6305;48.398;11.762;2022-10-03T00:55:36;8.40;99.90
12481;DHT22;6305;48.398;11.762;2022-10-03T00:58:23;8.50;99.90
12481;DHT22;6305;48.398;11.762;2022-10-03T01:00:57;8.50;99.90
12481;DHT22;6305;48.398;11.762;2022-10-03T01:03:40;8.50;99.90
12481;DHT22;6305;48.398;11.762;2022-10-03T01:06:19;8.50;99.90
12481;DHT22;6305;48.398;11.762;2022-10-03T01:09:00;8.50;99.90
12481;DHT22;6305;48.398;11.762;2022-10-03T01:11:40;8.50;99.90
12481;DHT22;6305;48.398;11.762;2022-10-03T01:14:21;8.50;99.90
12481;DHT22;6305;48.398;11.762;2022-10-03T01:16:57;8.50;99.90
12481;DHT22;6305;48.398;11.762;2022-10-03T01:20:01;8.40;99.90
12481;DHT22;6305;48.398;11.762;2022-10-03T01:22:53;8.40;99.90
12481;DHT22;6305;48.398;11.762;2022-10-03T01:25:37;8.40;99.90
12481;DHT22;6305;48.398;11.762;2022-10-03T01:28:22;8.30;99.90
12481;DHT22;6305;48.398;11.762;2022-10-03T01:31:11;8.30;99.90
12481;DHT22;6305;48.398;11.762;2022-10-03T01:33:42;8.40;99.90
12481;DHT22;6305;48.398;11.762;2022-10-03T01:36:13;8.40;99.90
12481;DHT22;6305;48.398;11.762;2022-10-03T01:38:47;8.40;99.90
12481;DHT22;6305;48.398;11.762;2022-10-03T01:41:23;8.40;99.90
12481;DHT22;6305;48.398;11.762;2022-10-03T01:44:00;8.50;99.90
12481;DHT22;6305;48.398;11.762;2022-10-03T01:46:37;8.50;99.90
12481;DHT22;6305;48.398;11.762;2022-10-03T01:49:10;8.40;99.90
12481;DHT22;6305;48.398;11.762;2022-10-03T01:51:44;8.40;99.90
12481;DHT22;6305;48.398;11.762;2022-10-03T01:54:19;8.50;99.90
12481;DHT22;6305;48.398;11.762;2022-10-03T01:56:54;8.50;99.90
12481;DHT22;6305;48.398;11.762;2022-10-03T01:59:34;8.60;99.90
12481;DHT22;6305;48.398;11.762;2022-10-03T02:02:07;8.60;99.90
12481;DHT22;6305;48.398;11.762;2022-10-03T02:04:43;8.70;99.90
12481;DHT22;6305;48.398;11.762;2022-10-03T02:07:19;8.70;99.90
12481;DHT22;6305;48.398;11.762;2022-10-03T02:09:57;8.70;99.90
12481;DHT22;6305;48.398;11.762;2022-10-03T02:12:29;8.80;99.90
12481;DHT22;6305;48.398;11.762;2022-10-03T02:15:08;8.80;99.90
12481;DHT22;6305;48.398;11.762;2022-10-03T02:17:45;8.90;99.90
12481;DHT22;6305;48.398;11.762;2022-10-03T02:20:23;8.90;99.90
12481;DHT22;6305;48.398;11.762;2022-10-03T02:22:53;9.00;99.90
12481;DHT22;6305;48.398;11.762;2022-10-03T02:25:24;9.10;99.90
12481;DHT22;6305;48.398;11.762;2022-10-03T02:31:16;9.20;99.90
12481;DHT22;6305;48.398;11.762;2022-10-03T02:34:05;9.20;99.90
12481;DHT22;6305;48.398;11.762;2022-10-03T02:37:15;9.20;99.90
12481;DHT22;6305;48.398;11.762;2022-10-03T02:43:30;8.90;99.90
12481;DHT22;6305;48.398;11.762;2022-10-03T02:46:48;8.80;99.90
12481;DHT22;6305;48.398;11.762;2022-10-03T02:50:19;8.70;99.90
12481;DHT22;6305;48.398;11.762;2022-10-03T02:53:22;8.70;99.90
12481;DHT22;6305;48.398;11.762;2022-10-03T02:59:48;8.60;99.90
12481;DHT22;6305;48.398;11.762;2022-10-03T03:05:39;8.50;99.90
12481;DHT22;6305;48.398;11.762;2022-10-03T03:08:31;8.40;99.90
12481;DHT22;6305;48.398;11.762;2022-10-03T03:11:33;8.50;99.90
12481;DHT22;6305;48.398;11.762;2022-10-03T03:14:17;8.50;99.90
12481;DHT22;6305;48.398;11.762;2022-10-03T03:17:00;8.50;99.90
12481;DHT22;6305;48.398;11.762;2022-10-03T03:19:50;8.60;99.90
12481;DHT22;6305;48.398;11.762;2022-10-03T03:22:38;8.60;99.90
12481;DHT22;6305;48.398;11.762;2022-10-03T03:25:28;8.70;99.90
12481;DHT22;6305;48.398;11.762;2022-10-03T03:28:10;8.70;99.90
12481;DHT22;6305;48.398;11.762;2022-10-03T03:30:45;8.70;99.90
12481;DHT22;6305;48.398;11.762;2022-10-03T03:33:20;8.70;99.90
12481;DHT22;6305;48.398;11.762;2022-10-03T03:36:00;8.70;99.90
12481;DHT22;6305;48.398;11.762;2022-10-03T03:38:36;8.70;99.90
12481;DHT22;6305;48.398;11.762;2022-10-03T03:41:20;8.70;99.90
12481;DHT22;6305;48.398;11.762;2022-10-03T03:44:03;8.70;99.90
12481;DHT22;6305;48.398;11.762;2022-10-03T03:46:43;8.70;99.90
12481;DHT22;6305;48.398;11.762;2022-10-03T03:49:24;8.60;99.90
12481;DHT22;6305;48.398;11.762;2022-10-03T03:52:10;8.50;99.90
12481;DHT22;6305;48.398;11.762;2022-10-03T03:57:59;8.40;99.90
12481;DHT22;6305;48.398;11.762;2022-10-03T04:00:49;8.40;99.90
12481;DHT22;6305;48.398;11.762;2022-10-03T04:03:33;8.40;99.90
12481;DHT22;6305;48.398;11.762;2022-10-03T04:06:16;8.30;99.90
12481;DHT22;6305;48.398;11.762;2022-10-03T04:09:07;8.30;99.90
12481;DHT22;6305;48.398;11.762;2022-10-03T04:11:50;8.30;99.90
12481;DHT22;6305;48.398;11.762;2022-10-03T04:14:59;8.40;99.90
12481;DHT22;6305;48.398;11.762;2022-10-03T04:17:41;8.40;99.90
12481;DHT22;6305;48.398;11.762;2022-10-03T04:20:44;8.50;99.90
12481;DHT22;6305;48.398;11.762;2022-10-03T04:26:18;8.70;99.90
12481;DHT22;6305;48.398;11.762;2022-10-03T04:29:09;8.70;99.90
12481;DHT22;6305;48.398;11.762;2022-10-03T04:31:48;8.70;99.90
12481;DHT22;6305;48.398;11.762;2022-10-03T04:34:26;8.70;99.90
12481;DHT22;6305;48.398;11.762;2022-10-03T04:37:04;8.60;99.90
12481;DHT22;6305;48.398;11.762;2022-10-03T04:39:38;8.40;99.90
12481;DHT22;6305;48.398;11.762;2022-10-03T04:42:16;8.20;99.90
12481;DHT22;6305;48.398;11.762;2022-10-03T04:45:06;8.10;99.90
12481;DHT22;6305;48.398;11.762;2022-10-03T04:47:42;8.00;99.90
12481;DHT22;6305;48.398;11.762;2022-10-03T04:50:26;8.10;99.90
12481;DHT22;6305;48.398;11.762;2022-10-03T04:53:04;8.20;99.90
12481;DHT22;6305;48.398;11.762;2022-10-03T04:55:39;8.20;99.90
12481;DHT22;6305;48.398;11.762;2022-10-03T04:58:16;8.10;99.90
12481;DHT22;6305;48.398;11.762;2022-10-03T05:00:56;8.10;99.90
12481;DHT22;6305;48.398;11.762;2022-10-03T05:03:36;7.90;99.90
12481;DHT22;6305;48.398;11.762;2022-10-03T05:06:21;7.70;99.90
12481;DHT22;6305;48.398;11.762;2022-10-03T05:08:54;7.60;99.90
12481;DHT22;6305;48.398;11.762;2022-10-03T05:11:35;7.60;99.90
12481;DHT22;6305;48.398;11.762;2022-10-03T05:14:09;7.70;99.90
12481;DHT22;6305;48.398;11.762;2022-10-03T05:16:39;7.80;99.90
12481;DHT22;6305;48.398;11.762;2022-10-03T05:19:38;8.10;99.90
12481;DHT22;6305;48.398;11.762;2022-10-03T05:22:13;8.30;99.90
12481;DHT22;6305;48.398;11.762;2022-10-03T05:24:49;8.50;99.90
12481;DHT22;6305;48.398;11.762;2022-10-03T05:27:24;8.60;99.90
12481;DHT22;6305;48.398;11.762;2022-10-03T05:30:00;8.60;99.90
12481;DHT22;6305;48.398;11.762;2022-10-03T05:32:32;8.50;99.90
12481;DHT22;6305;48.398;11.762;2022-10-03T05:35:23;8.50;99.90
12481;DHT22;6305;48.398;11.762;2022-10-03T05:41:00;8.80;99.90
12481;DHT22;6305;48.398;11.762;2022-10-03T05:43:43;8.90;99.90
12481;DHT22;6305;48.398;11.762;2022-10-03T05:46:20;9.10;99.90
12481;DHT22;6305;48.398;11.762;2022-10-03T05:48:49;9.10;99.90
12481;DHT22;6305;48.398;11.762;2022-10-03T05:51:33;9.10;99.90
12481;DHT22;6305;48.398;11.762;2022-10-03T05:57:42;9.10;99.90
12481;DHT22;6305;48.398;11.762;2022-10-03T06:00:19;9.20;99.90
12481;DHT22;6305;48.398;11.762;2022-10-03T06:03:03;9.30;99.90
12481;DHT22;6305;48.398;11.762;2022-10-03T06:05:50;9.40;99.90
12481;DHT22;6305;48.398;11.762;2022-10-03T06:11:54;9.70;99.90
12481;DHT22;6305;48.398;11.762;2022-10-03T06:14:31;9.80;99.90
12481;DHT22;6305;48.398;11.762;2022-10-03T06:17:14;9.80;99.90
12481;DHT22;6305;48.398;11.762;2022-10-03T06:19:50;9.80;99.90
12481;DHT22;6305;48.398;11.762;2022-10-03T06:22:38;9.80;99.90
12481;DHT22;6305;48.398;11.762;2022-10-03T06:28:48;10.10;99.90
12481;DHT22;6305;48.398;11.762;2022-10-03T06:31:43;10.20;99.90
12481;DHT22;6305;48.398;11.762;2022-10-03T06:34:51;10.30;99.90
12481;DHT22;6305;48.398;11.762;2022-10-03T06:44:00;10.80;99.90
12481;DHT22;6305;48.398;11.762;2022-10-03T06:46:59;10.90;99.90
12481;DHT22;6305;48.398;11.762;2022-10-03T06:49:57;11.00;99.90
12481;DHT22;6305;48.398;11.762;2022-10-03T06:56:00;10.90;99.90
12481;DHT22;6305;48.398;11.762;2022-10-03T06:58:59;11.30;99.90
12481;DHT22;6305;48.398;11.762;2022-10-03T07:02:04;12.00;99.90
12481;DHT22;6305;48.398;11.762;2022-10-03T07:05:04;12.00;99.90
12481;DHT22;6305;48.398;11.762;2022-10-03T07:07:52;11.90;99.90
12481;DHT22;6305;48.398;11.762;2022-10-03T07:10:38;11.80;99.90
12481;DHT22;6305;48.398;11.762;2022-10-03T07:19:17;11.50;99.90
12481;DHT22;6305;48.398;11.762;2022-10-03T07:31:15;11.50;99.90
12481;DHT22;6305;48.398;11.762;2022-10-03T07:34:17;11.60;99.90
12481;DHT22;6305;48.398;11.762;2022-10-03T07:37:03;11.90;99.90
12481;DHT22;6305;48.398;11.762;2022-10-03T07:40:11;12.10;99.90
12481;DHT22;6305;48.398;11.762;2022-10-03T08:02:31;16.60;99.90
12481;DHT22;6305;48.398;11.762;2022-10-03T08:05:24;17.70;99.90
12481;DHT22;6305;48.398;11.762;2022-10-03T08:08:19;17.80;99.90
12481;DHT22;6305;48.398;11.762;2022-10-03T08:11:09;16.90;99.90
12481;DHT22;6305;48.398;11.762;2022-10-03T08:13:52;16.30;99.90
12481;DHT22;6305;48.398;11.762;2022-10-03T08:16:47;15.80;99.90
12481;DHT22;6305;48.398;11.762;2022-10-03T08:19:38;15.30;99.90
12481;DHT22;6305;48.398;11.762;2022-10-03T08:22:16;15.40;99.90
12481;DHT22;6305;48.398;11.762;2022-10-03T08:25:09;15.40;99.90
12481;DHT22;6305;48.398;11.762;2022-10-03T08:30:56;15.80;99.90
12481;DHT22;6305;48.398;11.762;2022-10-03T08:33:42;15.90;99.90
12481;DHT22;6305;48.398;11.762;2022-10-03T08:36:35;18.60;99.90
12481;DHT22;6305;48.398;11.762;2022-10-03T08:39:11;19.30;99.90
12481;DHT22;6305;48.398;11.762;2022-10-03T08:42:17;21.40;99.90
12481;DHT22;6305;48.398;11.762;2022-10-03T08:57:26;18.00;99.90
12481;DHT22;6305;48.398;11.762;2022-10-03T09:00:15;17.90;99.90
12481;DHT22;6305;48.398;11.762;2022-10-03T09:06:33;18.70;99.90
12481;DHT22;6305;48.398;11.762;2022-10-03T09:12:28;16.70;99.90
12481;DHT22;6305;48.398;11.762;2022-10-03T09:18:19;17.80;99.90
12481;DHT22;6305;48.398;11.762;2022-10-03T09:21:15;17.70;99.90
12481;DHT22;6305;48.398;11.762;2022-10-03T09:27:26;20.00;99.90
12481;DHT22;6305;48.398;11.762;2022-10-03T09:30:21;20.10;99.90
12481;DHT22;6305;48.398;11.762;2022-10-03T09:36:19;20.40;98.40
12481;DHT22;6305;48.398;11.762;2022-10-03T09:39:17;20.00;94.90
12481;DHT22;6305;48.398;11.762;2022-10-03T09:42:25;19.00;94.30
12481;DHT22;6305;48.398;11.762;2022-10-03T09:45:29;18.10;98.20
12481;DHT22;6305;48.398;11.762;2022-10-03T09:48:24;17.40;99.90
12481;DHT22;6305;48.398;11.762;2022-10-03T09:51:26;17.10;99.90
12481;DHT22;6305;48.398;11.762;2022-10-03T09:57:22;16.80;99.90
12481;DHT22;6305;48.398;11.762;2022-10-03T10:00:18;16.90;99.90
12481;DHT22;6305;48.398;11.762;2022-10-03T10:03:09;16.70;99.90
12481;DHT22;6305;48.398;11.762;2022-10-03T10:09:20;17.10;99.90
12481;DHT22;6305;48.398;11.762;2022-10-03T10:15:07;18.70;99.90
12481;DHT22;6305;48.398;11.762;2022-10-03T10:18:00;19.40;96.90
12481;DHT22;6305;48.398;11.762;2022-10-03T10:23:44;19.90;95.30
12481;DHT22;6305;48.398;11.762;2022-10-03T10:29:28;20.90;93.20
12481;DHT22;6305;48.398;11.762;2022-10-03T10:35:50;21.10;83.90
12481;DHT22;6305;48.398;11.762;2022-10-03T10:41:38;19.20;90.00
12481;DHT22;6305;48.398;11.762;2022-10-03T10:44:37;18.30;93.10
12481;DHT22;6305;48.398;11.762;2022-10-03T10:47:56;17.70;97.00
12481;DHT22;6305;48.398;11.762;2022-10-03T10:51:11;17.00;97.20
12481;DHT22;6305;48.398;11.762;2022-10-03T10:57:09;16.90;99.90
12481;DHT22;6305;48.398;11.762;2022-10-03T11:00:17;17.10;99.90
12481;DHT22;6305;48.398;11.762;2022-10-03T11:09:44;18.80;99.90
12481;DHT22;6305;48.398;11.762;2022-10-03T11:12:45;20.00;99.20
12481;DHT22;6305;48.398;11.762;2022-10-03T11:19:10;21.50;79.00
12481;DHT22;6305;48.398;11.762;2022-10-03T11:25:36;19.00;88.10
12481;DHT22;6305;48.398;11.762;2022-10-03T11:37:42;17.30;97.60
12481;DHT22;6305;48.398;11.762;2022-10-03T11:40:26;17.00;99.40
12481;DHT22;6305;48.398;11.762;2022-10-03T11:46:18;17.70;99.90
12481;DHT22;6305;48.398;11.762;2022-10-03T11:48:52;18.90;97.50
12481;DHT22;6305;48.398;11.762;2022-10-03T11:51:34;19.00;92.30
12481;DHT22;6305;48.398;11.762;2022-10-03T11:54:11;18.30;93.10
12481;DHT22;6305;48.398;11.762;2022-10-03T11:56:44;17.90;95.30
12481;DHT22;6305;48.398;11.762;2022-10-03T11:59:44;17.70;96.50
12481;DHT22;6305;48.398;11.762;2022-10-03T12:02:24;18.60;99.90
12481;DHT22;6305;48.398;11.762;2022-10-03T12:04:57;21.60;96.60
12481;DHT22;6305;48.398;11.762;2022-10-03T12:07:43;24.70;81.20
12481;DHT22;6305;48.398;11.762;2022-10-03T12:10:35;25.60;58.70
12481;DHT22;6305;48.398;11.762;2022-10-03T12:13:09;25.60;55.90
12481;DHT22;6305;48.398;11.762;2022-10-03T12:15:41;26.90;56.50
12481;DHT22;6305;48.398;11.762;2022-10-03T12:18:13;26.90;49.50
12481;DHT22;6305;48.398;11.762;2022-10-03T12:21:04;24.70;50.40
12481;DHT22;6305;48.398;11.762;2022-10-03T12:23:49;22.40;54.80
12481;DHT22;6305;48.398;11.762;2022-10-03T12:26:25;21.30;60.10
12481;DHT22;6305;48.398;11.762;2022-10-03T12:28:56;21.90;62.30
12481;DHT22;6305;48.398;11.762;2022-10-03T12:31:28;23.50;59.20
12481;DHT22;6305;48.398;11.762;2022-10-03T12:34:27;25.40;56.70
12481;DHT22;6305;48.398;11.762;2022-10-03T12:37:18;27.30;51.80
12481;DHT22;6305;48.398;11.762;2022-10-03T12:39:55;28.50;47.00
12481;DHT22;6305;48.398;11.762;2022-10-03T12:42:31;29.60;44.60
12481;DHT22;6305;48.398;11.762;2022-10-03T12:45:12;30.20;40.90
12481;DHT22;6305;48.398;11.762;2022-10-03T12:50:45;31.50;37.90
12481;DHT22;6305;48.398;11.762;2022-10-03T12:53:30;32.10;37.40
12481;DHT22;6305;48.398;11.762;2022-10-03T12:56:06;32.10;36.00
12481;DHT22;6305;48.398;11.762;2022-10-03T12:58:49;31.10;37.00
12481;DHT22;6305;48.398;11.762;2022-10-03T13:01:26;31.20;37.20
12481;DHT22;6305;48.398;11.762;2022-10-03T13:03:58;30.60;35.90
12481;DHT22;6305;48.398;11.762;2022-10-03T13:06:48;30.20;36.50
12481;DHT22;6305;48.398;11.762;2022-10-03T13:09:31;30.60;37.20
12481;DHT22;6305;48.398;11.762;2022-10-03T13:12:07;30.90;35.50
12481;DHT22;6305;48.398;11.762;2022-10-03T13:17:48;30.30;34.90
12481;DHT22;6305;48.398;11.762;2022-10-03T13:20:25;30.00;35.30
12481;DHT22;6305;48.398;11.762;2022-10-03T13:22:59;29.80;35.10
12481;DHT22;6305;48.398;11.762;2022-10-03T13:25:34;30.20;35.10
12481;DHT22;6305;48.398;11.762;2022-10-03T13:28:10;29.60;34.50
12481;DHT22;6305;48.398;11.762;2022-10-03T13:30:45;29.50;34.90
12481;DHT22;6305;48.398;11.762;2022-10-03T13:33:18;29.60;35.00
12481;DHT22;6305;48.398;11.762;2022-10-03T13:35:49;29.60;35.00
12481;DHT22;6305;48.398;11.762;2022-10-03T13:38:50;29.30;34.80
12481;DHT22;6305;48.398;11.762;2022-10-03T13:41:27;29.50;34.90
12481;DHT22;6305;48.398;11.762;2022-10-03T13:43:57;29.60;34.40
12481;DHT22;6305;48.398;11.762;2022-10-03T13:46:32;29.40;33.70
12481;DHT22;6305;48.398;11.762;2022-10-03T13:49:08;29.50;33.90
12481;DHT22;6305;48.398;11.762;2022-10-03T13:51:43;29.70;33.80
12481;DHT22;6305;48.398;11.762;2022-10-03T13:54:14;30.10;34.70
12481;DHT22;6305;48.398;11.762;2022-10-03T13:56:54;30.50;33.40
12481;DHT22;6305;48.398;11.762;2022-10-03T13:59:35;30.90;33.30
12481;DHT22;6305;48.398;11.762;2022-10-03T14:02:17;31.30;32.50
12481;DHT22;6305;48.398;11.762;2022-10-03T14:05:09;30.60;32.40
12481;DHT22;6305;48.398;11.762;2022-10-03T14:07:49;30.40;33.00
12481;DHT22;6305;48.398;11.762;2022-10-03T14:10:37;29.60;32.50
12481;DHT22;6305;48.398;11.762;2022-10-03T14:13:14;29.20;34.30
12481;DHT22;6305;48.398;11.762;2022-10-03T14:15:50;28.60;34.40
12481;DHT22;6305;48.398;11.762;2022-10-03T14:18:35;28.20;35.10
12481;DHT22;6305;48.398;11.762;2022-10-03T14:21:37;28.30;34.20
12481;DHT22;6305;48.398;11.762;2022-10-03T14:24:14;28.10;34.90
12481;DHT22;6305;48.398;11.762;2022-10-03T14:26:55;28.20;35.20
12481;DHT22;6305;48.398;11.762;2022-10-03T14:29:27;28.40;35.10
12481;DHT22;6305;48.398;11.762;2022-10-03T14:32:04;28.40;35.20
12481;DHT22;6305;48.398;11.762;2022-10-03T14:34:41;28.80;34.60
12481;DHT22;6305;48.398;11.762;2022-10-03T14:37:22;28.90;34.40
12481;DHT22;6305;48.398;11.762;2022-10-03T14:40:00;27.80;33.90
12481;DHT22;6305;48.398;11.762;2022-10-03T14:42:45;25.60;37.00
12481;DHT22;6305;48.398;11.762;2022-10-03T14:45:16;24.00;40.00
12481;DHT22;6305;48.398;11.762;2022-10-03T14:47:48;22.70;42.10
12481;DHT22;6305;48.398;11.762;2022-10-03T14:50:18;21.60;43.60
12481;DHT22;6305;48.398;11.762;2022-10-03T14:52:51;20.80;45.80
12481;DHT22;6305;48.398;11.762;2022-10-03T14:55:29;21.30;46.90
12481;DHT22;6305;48.398;11.762;2022-10-03T14:58:00;22.50;46.80
12481;DHT22;6305;48.398;11.762;2022-10-03T15:00:36;23.80;45.40
12481;DHT22;6305;48.398;11.762;2022-10-03T15:03:30;24.70;43.30
12481;DHT22;6305;48.398;11.762;2022-10-03T15:06:01;24.70;41.30
12481;DHT22;6305;48.398;11.762;2022-10-03T15:08:35;23.80;41.90
12481;DHT22;6305;48.398;11.762;2022-10-03T15:11:04;23.50;41.90
12481;DHT22;6305;48.398;11.762;2022-10-03T15:13:37;22.80;41.90
12481;DHT22;6305;48.398;11.762;2022-10-03T15:16:05;21.50;43.50
12481;DHT22;6305;48.398;11.762;2022-10-03T15:18:33;19.90;45.90
12481;DHT22;6305;48.398;11.762;2022-10-03T15:21:02;18.60;48.70
12481;DHT22;6305;48.398;11.762;2022-10-03T15:23:35;17.60;51.30
12481;DHT22;6305;48.398;11.762;2022-10-03T15:26:08;16.70;53.80
12481;DHT22;6305;48.398;11.762;2022-10-03T15:28:41;16.00;56.20
12481;DHT22;6305;48.398;11.762;2022-10-03T15:31:17;15.50;58.80
12481;DHT22;6305;48.398;11.762;2022-10-03T15:33:46;15.10;60.80
12481;DHT22;6305;48.398;11.762;2022-10-03T15:36:21;14.80;64.50
12481;DHT22;6305;48.398;11.762;2022-10-03T15:38:52;14.50;68.70
12481;DHT22;6305;48.398;11.762;2022-10-03T15:41:26;14.20;73.80
12481;DHT22;6305;48.398;11.762;2022-10-03T15:43:57;14.00;77.70
12481;DHT22;6305;48.398;11.762;2022-10-03T15:46:32;13.80;81.90
12481;DHT22;6305;48.398;11.762;2022-10-03T15:49:02;13.60;86.00
12481;DHT22;6305;48.398;11.762;2022-10-03T15:51:31;13.50;90.30
12481;DHT22;6305;48.398;11.762;2022-10-03T15:54:05;13.30;92.50
12481;DHT22;6305;48.398;11.762;2022-10-03T15:56:37;13.20;94.30
12481;DHT22;6305;48.398;11.762;2022-10-03T15:59:07;13.10;95.70
12481;DHT22;6305;48.398;11.762;2022-10-03T16:01:37;12.90;96.40
12481;DHT22;6305;48.398;11.762;2022-10-03T16:04:11;12.80;97.90
12481;DHT22;6305;48.398;11.762;2022-10-03T16:06:44;12.70;99.70
12481;DHT22;6305;48.398;11.762;2022-10-03T16:09:22;12.40;99.90
12481;DHT22;6305;48.398;11.762;2022-10-03T16:12:02;12.30;99.90
12481;DHT22;6305;48.398;11.762;2022-10-03T16:14:35;12.10;99.90
12481;DHT22;6305;48.398;11.762;2022-10-03T16:17:14;11.90;99.90
12481;DHT22;6305;48.398;11.762;2022-10-03T16:20:02;11.70;99.90
12481;DHT22;6305;48.398;11.762;2022-10-03T16:22:38;11.50;99.90
12481;DHT22;6305;48.398;11.762;2022-10-03T16:25:15;11.30;99.90
12481;DHT22;6305;48.398;11.762;2022-10-03T16:27:51;11.10;99.90
12481;DHT22;6305;48.398;11.762;2022-10-03T16:30:20;10.90;99.90
12481;DHT22;6305;48.398;11.762;2022-10-03T16:32:53;10.70;99.90
12481;DHT22;6305;48.398;11.762;2022-10-03T16:35:31;10.60;99.90
12481;DHT22;6305;48.398;11.762;2022-10-03T16:37:59;10.40;99.90
12481;DHT22;6305;48.398;11.762;2022-10-03T16:40:29;10.40;99.90
12481;DHT22;6305;48.398;11.762;2022-10-03T16:42:57;10.20;99.90
12481;DHT22;6305;48.398;11.762;2022-10-03T16:45:27;10.00;99.90
12481;DHT22;6305;48.398;11.762;2022-10-03T16:47:58;9.90;99.90
12481;DHT22;6305;48.398;11.762;2022-10-03T16:50:46;9.70;99.90
12481;DHT22;6305;48.398;11.762;2022-10-03T16:53:15;9.60;99.90
12481;DHT22;6305;48.398;11.762;2022-10-03T16:55:47;9.40;99.90
12481;DHT22;6305;48.398;11.762;2022-10-03T16:58:19;9.30;99.90
12481;DHT22;6305;48.398;11.762;2022-10-03T17:00:53;9.20;99.90
12481;DHT22;6305;48.398;11.762;2022-10-03T17:03:24;9.10;99.90
12481;DHT22;6305;48.398;11.762;2022-10-03T17:05:55;9.00;99.90
12481;DHT22;6305;48.398;11.762;2022-10-03T17:08:27;8.80;99.90
12481;DHT22;6305;48.398;11.762;2022-10-03T17:11:00;8.80;99.90
12481;DHT22;6305;48.398;11.762;2022-10-03T17:13:40;8.70;99.90
12481;DHT22;6305;48.398;11.762;2022-10-03T17:16:12;8.60;99.90
12481;DHT22;6305;48.398;11.762;2022-10-03T17:18:43;8.60;99.90
12481;DHT22;6305;48.398;11.762;2022-10-03T17:21:20;8.40;99.90
12481;DHT22;6305;48.398;11.762;2022-10-03T17:23:55;8.40;99.90
12481;DHT22;6305;48.398;11.762;2022-10-03T17:26:31;8.40;99.90
12481;DHT22;6305;48.398;11.762;2022-10-03T17:29:06;8.30;99.90
12481;DHT22;6305;48.398;11.762;2022-10-03T17:31:40;8.20;99.90
12481;DHT22;6305;48.398;11.762;2022-10-03T17:34:13;8.20;99.90
12481;DHT22;6305;48.398;11.762;2022-10-03T17:37:08;8.10;99.90
12481;DHT22;6305;48.398;11.762;2022-10-03T17:39:52;8.10;99.90
12481;DHT22;6305;48.398;11.762;2022-10-03T17:42:37;8.00;99.90
12481;DHT22;6305;48.398;11.762;2022-10-03T17:45:24;8.00;99.90
12481;DHT22;6305;48.398;11.762;2022-10-03T17:47:56;7.90;99.90
12481;DHT22;6305;48.398;11.762;2022-10-03T17:50:27;7.80;99.90
12481;DHT22;6305;48.398;11.762;2022-10-03T17:52:56;7.80;99.90
12481;DHT22;6305;48.398;11.762;2022-10-03T17:55:29;7.70;99.90
12481;DHT22;6305;48.398;11.762;2022-10-03T17:58:01;7.70;99.90
12481;DHT22;6305;48.398;11.762;2022-10-03T18:00:34;7.70;99.90
12481;DHT22;6305;48.398;11.762;2022-10-03T18:03:05;7.70;99.90
12481;DHT22;6305;48.398;11.762;2022-10-03T18:05:39;7.70;99.90
12481;DHT22;6305;48.398;11.762;2022-10-03T18:08:12;7.70;99.90
12481;DHT22;6305;48.398;11.762;2022-10-03T18:10:45;7.70;99.90
12481;DHT22;6305;48.398;11.762;2022-10-03T18:13:18;7.60;99.90
12481;DHT22;6305;48.398;11.762;2022-10-03T18:16:08;7.60;99.90
12481;DHT22;6305;48.398;11.762;2022-10-03T18:19:08;7.50;99.90
12481;DHT22;6305;48.398;11.762;2022-10-03T18:21:57;7.40;99.90
12481;DHT22;6305;48.398;11.762;2022-10-03T18:24:52;7.40;99.90
12481;DHT22;6305;48.398;11.762;2022-10-03T18:27:38;7.30;99.90
12481;DHT22;6305;48.398;11.762;2022-10-03T18:30:15;7.30;99.90
12481;DHT22;6305;48.398;11.762;2022-10-03T18:32:45;7.30;99.90
12481;DHT22;6305;48.398;11.762;2022-10-03T18:35:16;7.30;99.90
12481;DHT22;6305;48.398;11.762;2022-10-03T18:38:04;7.20;99.90
12481;DHT22;6305;48.398;11.762;2022-10-03T18:40:34;7.20;99.90
12481;DHT22;6305;48.398;11.762;2022-10-03T18:43:03;7.20;99.90
12481;DHT22;6305;48.398;11.762;2022-10-03T18:45:41;7.20;99.90
12481;DHT22;6305;48.398;11.762;2022-10-03T18:48:11;7.10;99.90
12481;DHT22;6305;48.398;11.762;2022-10-03T18:50:49;7.10;99.90
12481;DHT22;6305;48.398;11.762;2022-10-03T18:53:24;7.00;99.90
12481;DHT22;6305;48.398;11.762;2022-10-03T18:55:58;6.90;99.90
12481;DHT22;6305;48.398;11.762;2022-10-03T18:58:31;6.80;99.90
12481;DHT22;6305;48.398;11.762;2022-10-03T19:01:03;6.80;99.90
12481;DHT22;6305;48.398;11.762;2022-10-03T19:03:34;6.80;99.90
12481;DHT22;6305;48.398;11.762;2022-10-03T19:06:05;6.80;99.90
12481;DHT22;6305;48.398;11.762;2022-10-03T19:08:36;6.70;99.90
12481;DHT22;6305;48.398;11.762;2022-10-03T19:11:13;6.70;99.90
12481;DHT22;6305;48.398;11.762;2022-10-03T19:13:43;6.70;99.90
12481;DHT22;6305;48.398;11.762;2022-10-03T19:16:51;6.70;99.90
12481;DHT22;6305;48.398;11.762;2022-10-03T19:19:26;6.70;99.90
12481;DHT22;6305;48.398;11.762;2022-10-03T19:21:55;6.70;99.90
12481;DHT22;6305;48.398;11.762;2022-10-03T19:24:26;6.60;99.90
12481;DHT22;6305;48.398;11.762;2022-10-03T19:26:58;6.50;99.90
12481;DHT22;6305;48.398;11.762;2022-10-03T19:29:29;6.50;99.90
12481;DHT22;6305;48.398;11.762;2022-10-03T19:32:02;6.40;99.90
12481;DHT22;6305;48.398;11.762;2022-10-03T19:34:34;6.40;99.90
12481;DHT22;6305;48.398;11.762;2022-10-03T19:37:05;6.40;99.90
12481;DHT22;6305;48.398;11.762;2022-10-03T19:39:34;6.40;99.90
12481;DHT22;6305;48.398;11.762;2022-10-03T19:42:16;6.40;99.90
12481;DHT22;6305;48.398;11.762;2022-10-03T19:44:46;6.50;99.90
12481;DHT22;6305;48.398;11.762;2022-10-03T19:47:16;6.50;99.90
12481;DHT22;6305;48.398;11.762;2022-10-03T19:49:51;6.40;99.90
12481;DHT22;6305;48.398;11.762;2022-10-03T19:52:27;6.40;99.90
12481;DHT22;6305;48.398;11.762;2022-10-03T19:55:00;6.40;99.90
12481;DHT22;6305;48.398;11.762;2022-10-03T19:57:37;6.30;99.90